首页
METAR-TAF:

METAR-TAF

机场 :

Dillon Airport

Dillon, 蒙大拿州, 美国

纬度: 45-15-27N, 经度: 112-33-16W, 海拔: 1597米

当前天气观测

该预报发布于21分钟前的14:53 UTC
风速15节,风向东北
温度 -3°C
湿度 54%
气压 1025 hPa
能見度: 16.1公里
阴天层高于4600英尺

METAR: KDLN 191453Z AUTO 04015KT 10SM OVC046 M03/M11 A3028 RMK AO2 SLP285 T10331111 51008

时间: 09:14 (15:14 UTC)


TAF: 丢失

超过4000个机场的气象观测和天气预报(METAR&TAF报告)。

可查询的气象台以黄色和红色小点在地图上表示。

将鼠标移到小点上方,可查看气象台名称。

然后点击查看天气观测和预报。

如需切换地图:点击带黑十字的绿色按钮放大地图;点击带横线的绿色按钮缩小地图;或者点击绿色箭头查看邻近地区的地图。


METAR-TAF: